sensor_id;sensor_type;location;lat;lon;timestamp;P1;durP1;ratioP1;P2;durP2;ratioP2
47431;SDS011;33183;52.290;6.144;2024-03-06T00:00:31;4.57;;;3.20;;
47431;SDS011;33183;52.290;6.144;2024-03-06T00:02:58;5.40;;;2.80;;
47431;SDS011;33183;52.290;6.144;2024-03-06T00:05:23;3.85;;;2.55;;
47431;SDS011;33183;52.290;6.144;2024-03-06T00:07:48;4.25;;;2.65;;
47431;SDS011;33183;52.290;6.144;2024-03-06T00:10:14;4.15;;;3.30;;
47431;SDS011;33183;52.290;6.144;2024-03-06T00:12:39;3.40;;;2.72;;
47431;SDS011;33183;52.290;6.144;2024-03-06T00:15:05;4.65;;;3.17;;
47431;SDS011;33183;52.290;6.144;2024-03-06T00:17:31;4.03;;;3.10;;
47431;SDS011;33183;52.290;6.144;2024-03-06T00:19:56;3.85;;;2.92;;
47431;SDS011;33183;52.290;6.144;2024-03-06T00:22:21;4.93;;;3.05;;
47431;SDS011;33183;52.290;6.144;2024-03-06T00:24:47;3.95;;;3.17;;
47431;SDS011;33183;52.290;6.144;2024-03-06T00:27:13;4.38;;;3.05;;
47431;SDS011;33183;52.290;6.144;2024-03-06T00:29:38;5.18;;;2.83;;
47431;SDS011;33183;52.290;6.144;2024-03-06T00:32:03;3.45;;;2.58;;
47431;SDS011;33183;52.290;6.144;2024-03-06T00:34:29;3.42;;;2.60;;
47431;SDS011;33183;52.290;6.144;2024-03-06T00:36:54;3.70;;;2.72;;
47431;SDS011;33183;52.290;6.144;2024-03-06T00:39:20;4.45;;;3.08;;
47431;SDS011;33183;52.290;6.144;2024-03-06T00:41:45;3.78;;;2.90;;
47431;SDS011;33183;52.290;6.144;2024-03-06T00:44:10;2.95;;;2.38;;
47431;SDS011;33183;52.290;6.144;2024-03-06T00:46:35;4.18;;;3.05;;
47431;SDS011;33183;52.290;6.144;2024-03-06T00:49:01;3.92;;;2.88;;
47431;SDS011;33183;52.290;6.144;2024-03-06T00:51:26;4.13;;;3.10;;
47431;SDS011;33183;52.290;6.144;2024-03-06T00:53:51;3.22;;;2.50;;
47431;SDS011;33183;52.290;6.144;2024-03-06T00:56:16;4.70;;;3.22;;
47431;SDS011;33183;52.290;6.144;2024-03-06T00:58:42;4.35;;;3.05;;
47431;SDS011;33183;52.290;6.144;2024-03-06T01:01:07;3.50;;;3.13;;
47431;SDS011;33183;52.290;6.144;2024-03-06T01:03:32;4.13;;;2.65;;
47431;SDS011;33183;52.290;6.144;2024-03-06T01:05:57;3.72;;;2.80;;
47431;SDS011;33183;52.290;6.144;2024-03-06T01:08:23;4.72;;;3.33;;
47431;SDS011;33183;52.290;6.144;2024-03-06T01:10:50;4.38;;;3.38;;
47431;SDS011;33183;52.290;6.144;2024-03-06T01:13:15;4.15;;;3.05;;
47431;SDS011;33183;52.290;6.144;2024-03-06T01:15:41;3.83;;;3.00;;
47431;SDS011;33183;52.290;6.144;2024-03-06T01:18:06;3.53;;;2.95;;
47431;SDS011;33183;52.290;6.144;2024-03-06T01:20:31;3.28;;;2.90;;
47431;SDS011;33183;52.290;6.144;2024-03-06T01:22:57;4.22;;;2.95;;
47431;SDS011;33183;52.290;6.144;2024-03-06T01:25:22;6.10;;;3.78;;
47431;SDS011;33183;52.290;6.144;2024-03-06T01:27:48;3.60;;;2.80;;
47431;SDS011;33183;52.290;6.144;2024-03-06T01:30:13;3.88;;;3.20;;
47431;SDS011;33183;52.290;6.144;2024-03-06T01:32:39;3.75;;;2.97;;
47431;SDS011;33183;52.290;6.144;2024-03-06T01:35:04;4.07;;;2.65;;
47431;SDS011;33183;52.290;6.144;2024-03-06T01:37:30;4.00;;;3.40;;
47431;SDS011;33183;52.290;6.144;2024-03-06T01:39:55;4.50;;;3.35;;
47431;SDS011;33183;52.290;6.144;2024-03-06T01:42:21;3.13;;;2.60;;
47431;SDS011;33183;52.290;6.144;2024-03-06T01:44:46;3.42;;;2.90;;
47431;SDS011;33183;52.290;6.144;2024-03-06T01:47:11;4.60;;;3.35;;
47431;SDS011;33183;52.290;6.144;2024-03-06T01:49:36;4.97;;;3.15;;
47431;SDS011;33183;52.290;6.144;2024-03-06T01:52:02;3.95;;;2.95;;
47431;SDS011;33183;52.290;6.144;2024-03-06T01:54:27;3.65;;;2.90;;
47431;SDS011;33183;52.290;6.144;2024-03-06T01:56:53;4.05;;;3.05;;
47431;SDS011;33183;52.290;6.144;2024-03-06T01:59:20;3.17;;;2.60;;
47431;SDS011;33183;52.290;6.144;2024-03-06T02:01:46;4.55;;;3.25;;
47431;SDS011;33183;52.290;6.144;2024-03-06T02:04:12;3.25;;;2.70;;
47431;SDS011;33183;52.290;6.144;2024-03-06T02:06:41;4.28;;;2.90;;
47431;SDS011;33183;52.290;6.144;2024-03-06T02:11:32;3.75;;;3.08;;
47431;SDS011;33183;52.290;6.144;2024-03-06T02:13:57;3.45;;;2.70;;
47431;SDS011;33183;52.290;6.144;2024-03-06T02:16:23;4.60;;;3.10;;
47431;SDS011;33183;52.290;6.144;2024-03-06T02:18:54;3.08;;;2.47;;
47431;SDS011;33183;52.290;6.144;2024-03-06T02:21:21;3.55;;;2.90;;
47431;SDS011;33183;52.290;6.144;2024-03-06T02:23:47;3.13;;;2.83;;
47431;SDS011;33183;52.290;6.144;2024-03-06T02:26:12;3.53;;;2.88;;
47431;SDS011;33183;52.290;6.144;2024-03-06T02:28:37;3.85;;;3.10;;
47431;SDS011;33183;52.290;6.144;2024-03-06T02:31:03;4.60;;;3.05;;
47431;SDS011;33183;52.290;6.144;2024-03-06T02:33:29;2.70;;;2.40;;
47431;SDS011;33183;52.290;6.144;2024-03-06T02:35:55;3.15;;;2.65;;
47431;SDS011;33183;52.290;6.144;2024-03-06T02:38:20;3.78;;;2.63;;
47431;SDS011;33183;52.290;6.144;2024-03-06T02:40:45;3.70;;;2.58;;
47431;SDS011;33183;52.290;6.144;2024-03-06T02:43:11;3.35;;;2.75;;
47431;SDS011;33183;52.290;6.144;2024-03-06T02:45:36;4.30;;;2.75;;
47431;SDS011;33183;52.290;6.144;2024-03-06T02:48:01;3.83;;;2.90;;
47431;SDS011;33183;52.290;6.144;2024-03-06T02:50:27;3.83;;;2.90;;
47431;SDS011;33183;52.290;6.144;2024-03-06T02:52:52;3.25;;;2.70;;
47431;SDS011;33183;52.290;6.144;2024-03-06T02:55:18;2.75;;;2.50;;
47431;SDS011;33183;52.290;6.144;2024-03-06T02:57:44;3.15;;;2.85;;
47431;SDS011;33183;52.290;6.144;2024-03-06T03:00:09;3.97;;;3.00;;
47431;SDS011;33183;52.290;6.144;2024-03-06T03:02:38;3.22;;;2.90;;
47431;SDS011;33183;52.290;6.144;2024-03-06T03:05:04;3.55;;;2.47;;
47431;SDS011;33183;52.290;6.144;2024-03-06T03:07:30;3.67;;;2.72;;
47431;SDS011;33183;52.290;6.144;2024-03-06T03:09:55;4.15;;;3.40;;
47431;SDS011;33183;52.290;6.144;2024-03-06T03:12:20;2.97;;;2.33;;
47431;SDS011;33183;52.290;6.144;2024-03-06T03:14:46;2.90;;;2.60;;
47431;SDS011;33183;52.290;6.144;2024-03-06T03:17:11;3.95;;;3.15;;
47431;SDS011;33183;52.290;6.144;2024-03-06T03:19:37;3.55;;;3.05;;
47431;SDS011;33183;52.290;6.144;2024-03-06T03:22:04;3.60;;;2.58;;
47431;SDS011;33183;52.290;6.144;2024-03-06T03:24:30;4.18;;;2.67;;
47431;SDS011;33183;52.290;6.144;2024-03-06T03:26:55;4.05;;;2.95;;
47431;SDS011;33183;52.290;6.144;2024-03-06T03:29:20;3.83;;;2.53;;
47431;SDS011;33183;52.290;6.144;2024-03-06T03:31:46;3.55;;;2.20;;
47431;SDS011;33183;52.290;6.144;2024-03-06T03:34:11;3.45;;;2.63;;
47431;SDS011;33183;52.290;6.144;2024-03-06T03:36:40;3.25;;;2.78;;
47431;SDS011;33183;52.290;6.144;2024-03-06T03:39:06;2.97;;;2.50;;
47431;SDS011;33183;52.290;6.144;2024-03-06T03:41:38;3.13;;;2.50;;
47431;SDS011;33183;52.290;6.144;2024-03-06T03:44:03;2.83;;;2.28;;
47431;SDS011;33183;52.290;6.144;2024-03-06T03:46:29;2.80;;;2.40;;
47431;SDS011;33183;52.290;6.144;2024-03-06T03:48:54;2.80;;;2.50;;
47431;SDS011;33183;52.290;6.144;2024-03-06T03:51:19;4.03;;;2.90;;
47431;SDS011;33183;52.290;6.144;2024-03-06T03:53:44;3.53;;;2.78;;
47431;SDS011;33183;52.290;6.144;2024-03-06T03:56:12;3.10;;;2.38;;
47431;SDS011;33183;52.290;6.144;2024-03-06T03:58:38;4.68;;;3.25;;
47431;SDS011;33183;52.290;6.144;2024-03-06T04:01:03;4.18;;;3.22;;
47431;SDS011;33183;52.290;6.144;2024-03-06T04:03:28;3.22;;;2.50;;
47431;SDS011;33183;52.290;6.144;2024-03-06T04:05:54;3.40;;;3.05;;
47431;SDS011;33183;52.290;6.144;2024-03-06T04:08:19;3.00;;;2.70;;
47431;SDS011;33183;52.290;6.144;2024-03-06T04:10:44;4.22;;;2.50;;
47431;SDS011;33183;52.290;6.144;2024-03-06T04:13:10;3.60;;;2.67;;
47431;SDS011;33183;52.290;6.144;2024-03-06T04:15:35;2.90;;;2.60;;
47431;SDS011;33183;52.290;6.144;2024-03-06T04:18:01;3.55;;;2.55;;
47431;SDS011;33183;52.290;6.144;2024-03-06T04:20:26;3.53;;;2.67;;
47431;SDS011;33183;52.290;6.144;2024-03-06T04:22:51;2.78;;;2.42;;
47431;SDS011;33183;52.290;6.144;2024-03-06T04:25:17;2.95;;;2.65;;
47431;SDS011;33183;52.290;6.144;2024-03-06T04:27:42;3.78;;;2.35;;
47431;SDS011;33183;52.290;6.144;2024-03-06T04:30:08;4.47;;;2.80;;
47431;SDS011;33183;52.290;6.144;2024-03-06T04:32:34;3.33;;;2.35;;
47431;SDS011;33183;52.290;6.144;2024-03-06T04:34:59;2.50;;;2.30;;
47431;SDS011;33183;52.290;6.144;2024-03-06T04:37:24;3.28;;;2.95;;
47431;SDS011;33183;52.290;6.144;2024-03-06T04:39:51;2.92;;;2.40;;
47431;SDS011;33183;52.290;6.144;2024-03-06T04:42:17;3.25;;;2.40;;
47431;SDS011;33183;52.290;6.144;2024-03-06T04:44:42;3.03;;;2.60;;
47431;SDS011;33183;52.290;6.144;2024-03-06T04:47:08;2.83;;;2.50;;
47431;SDS011;33183;52.290;6.144;2024-03-06T04:49:33;2.85;;;2.40;;
47431;SDS011;33183;52.290;6.144;2024-03-06T04:52:01;2.97;;;2.40;;
47431;SDS011;33183;52.290;6.144;2024-03-06T04:54:27;3.70;;;2.78;;
47431;SDS011;33183;52.290;6.144;2024-03-06T04:56:53;3.08;;;2.50;;
47431;SDS011;33183;52.290;6.144;2024-03-06T04:59:18;3.92;;;3.08;;
47431;SDS011;33183;52.290;6.144;2024-03-06T05:01:44;2.53;;;2.20;;
47431;SDS011;33183;52.290;6.144;2024-03-06T05:04:09;3.72;;;2.60;;
47431;SDS011;33183;52.290;6.144;2024-03-06T05:06:35;2.97;;;2.33;;
47431;SDS011;33183;52.290;6.144;2024-03-06T05:09:00;3.60;;;2.45;;
47431;SDS011;33183;52.290;6.144;2024-03-06T05:11:26;3.38;;;2.53;;
47431;SDS011;33183;52.290;6.144;2024-03-06T05:13:51;3.25;;;2.45;;
47431;SDS011;33183;52.290;6.144;2024-03-06T05:16:16;2.78;;;2.50;;
47431;SDS011;33183;52.290;6.144;2024-03-06T05:18:42;2.42;;;2.22;;
47431;SDS011;33183;52.290;6.144;2024-03-06T05:21:08;3.08;;;2.63;;
47431;SDS011;33183;52.290;6.144;2024-03-06T05:23:33;2.92;;;2.30;;
47431;SDS011;33183;52.290;6.144;2024-03-06T05:25:58;3.22;;;2.58;;
47431;SDS011;33183;52.290;6.144;2024-03-06T05:28:23;4.45;;;2.88;;
47431;SDS011;33183;52.290;6.144;2024-03-06T05:30:49;3.28;;;2.80;;
47431;SDS011;33183;52.290;6.144;2024-03-06T05:33:14;3.53;;;2.42;;
47431;SDS011;33183;52.290;6.144;2024-03-06T05:35:39;2.80;;;2.35;;
47431;SDS011;33183;52.290;6.144;2024-03-06T05:38:05;2.97;;;2.60;;
47431;SDS011;33183;52.290;6.144;2024-03-06T05:40:32;3.15;;;2.85;;
47431;SDS011;33183;52.290;6.144;2024-03-06T05:43:02;3.58;;;2.80;;
47431;SDS011;33183;52.290;6.144;2024-03-06T05:45:27;2.83;;;2.58;;
47431;SDS011;33183;52.290;6.144;2024-03-06T05:47:53;3.55;;;2.55;;
47431;SDS011;33183;52.290;6.144;2024-03-06T05:50:18;3.10;;;2.70;;
47431;SDS011;33183;52.290;6.144;2024-03-06T05:52:44;3.17;;;2.35;;
47431;SDS011;33183;52.290;6.144;2024-03-06T05:55:09;3.70;;;2.65;;
47431;SDS011;33183;52.290;6.144;2024-03-06T05:57:34;2.85;;;2.55;;
47431;SDS011;33183;52.290;6.144;2024-03-06T05:59:59;3.42;;;2.40;;
47431;SDS011;33183;52.290;6.144;2024-03-06T06:02:25;7.28;;;2.67;;
47431;SDS011;33183;52.290;6.144;2024-03-06T06:04:50;3.67;;;2.25;;
47431;SDS011;33183;52.290;6.144;2024-03-06T06:07:15;3.38;;;2.65;;
47431;SDS011;33183;52.290;6.144;2024-03-06T06:09:42;4.50;;;2.50;;
47431;SDS011;33183;52.290;6.144;2024-03-06T06:12:07;5.03;;;2.67;;
47431;SDS011;33183;52.290;6.144;2024-03-06T06:14:33;2.28;;;2.08;;
47431;SDS011;33183;52.290;6.144;2024-03-06T06:16:58;2.28;;;1.95;;
47431;SDS011;33183;52.290;6.144;2024-03-06T06:19:24;3.40;;;2.42;;
47431;SDS011;33183;52.290;6.144;2024-03-06T06:21:51;4.18;;;2.75;;
47431;SDS011;33183;52.290;6.144;2024-03-06T06:24:19;2.88;;;2.28;;
47431;SDS011;33183;52.290;6.144;2024-03-06T06:26:45;4.28;;;2.45;;
47431;SDS011;33183;52.290;6.144;2024-03-06T06:29:10;2.95;;;2.30;;
47431;SDS011;33183;52.290;6.144;2024-03-06T06:31:35;3.22;;;2.25;;
47431;SDS011;33183;52.290;6.144;2024-03-06T06:34:01;2.88;;;2.45;;
47431;SDS011;33183;52.290;6.144;2024-03-06T06:36:26;4.05;;;2.28;;
47431;SDS011;33183;52.290;6.144;2024-03-06T06:38:52;2.40;;;2.20;;
47431;SDS011;33183;52.290;6.144;2024-03-06T06:41:18;4.63;;;2.58;;
47431;SDS011;33183;52.290;6.144;2024-03-06T06:43:44;3.00;;;2.60;;
47431;SDS011;33183;52.290;6.144;2024-03-06T06:46:09;3.53;;;2.30;;
47431;SDS011;33183;52.290;6.144;2024-03-06T06:48:34;3.50;;;2.33;;
47431;SDS011;33183;52.290;6.144;2024-03-06T06:51:00;3.78;;;2.35;;
47431;SDS011;33183;52.290;6.144;2024-03-06T06:53:31;2.63;;;2.42;;
47431;SDS011;33183;52.290;6.144;2024-03-06T06:55:57;3.55;;;2.42;;
47431;SDS011;33183;52.290;6.144;2024-03-06T06:58:22;3.60;;;2.30;;
47431;SDS011;33183;52.290;6.144;2024-03-06T07:00:48;4.03;;;2.50;;
47431;SDS011;33183;52.290;6.144;2024-03-06T07:03:13;4.13;;;2.45;;
47431;SDS011;33183;52.290;6.144;2024-03-06T07:05:38;2.38;;;2.10;;
47431;SDS011;33183;52.290;6.144;2024-03-06T07:08:04;3.65;;;2.28;;
47431;SDS011;33183;52.290;6.144;2024-03-06T07:10:29;2.78;;;2.42;;
47431;SDS011;33183;52.290;6.144;2024-03-06T07:12:55;4.25;;;2.53;;
47431;SDS011;33183;52.290;6.144;2024-03-06T07:15:20;5.05;;;2.50;;
47431;SDS011;33183;52.290;6.144;2024-03-06T07:17:45;3.38;;;2.38;;
47431;SDS011;33183;52.290;6.144;2024-03-06T07:20:11;2.83;;;2.20;;
47431;SDS011;33183;52.290;6.144;2024-03-06T07:22:36;4.30;;;2.58;;
47431;SDS011;33183;52.290;6.144;2024-03-06T07:25:02;2.65;;;2.25;;
47431;SDS011;33183;52.290;6.144;2024-03-06T07:27:27;4.63;;;2.55;;
47431;SDS011;33183;52.290;6.144;2024-03-06T07:29:53;3.00;;;2.70;;
47431;SDS011;33183;52.290;6.144;2024-03-06T07:32:18;6.82;;;2.80;;
47431;SDS011;33183;52.290;6.144;2024-03-06T07:34:44;4.63;;;2.42;;
47431;SDS011;33183;52.290;6.144;2024-03-06T07:37:09;3.33;;;2.60;;
47431;SDS011;33183;52.290;6.144;2024-03-06T07:39:34;3.60;;;2.80;;
47431;SDS011;33183;52.290;6.144;2024-03-06T07:42:00;3.00;;;2.70;;
47431;SDS011;33183;52.290;6.144;2024-03-06T07:44:25;3.83;;;2.72;;
47431;SDS011;33183;52.290;6.144;2024-03-06T07:46:50;4.28;;;2.67;;
47431;SDS011;33183;52.290;6.144;2024-03-06T07:49:16;3.55;;;2.65;;
47431;SDS011;33183;52.290;6.144;2024-03-06T07:51:41;8.68;;;3.08;;
47431;SDS011;33183;52.290;6.144;2024-03-06T07:54:06;2.90;;;2.60;;
47431;SDS011;33183;52.290;6.144;2024-03-06T07:56:32;5.20;;;3.00;;
47431;SDS011;33183;52.290;6.144;2024-03-06T07:58:59;3.13;;;2.45;;
47431;SDS011;33183;52.290;6.144;2024-03-06T08:01:25;3.88;;;2.90;;
47431;SDS011;33183;52.290;6.144;2024-03-06T08:03:51;4.10;;;3.08;;
47431;SDS011;33183;52.290;6.144;2024-03-06T08:06:16;5.70;;;2.60;;
47431;SDS011;33183;52.290;6.144;2024-03-06T08:08:43;4.10;;;3.08;;
47431;SDS011;33183;52.290;6.144;2024-03-06T08:11:12;3.47;;;2.90;;
47431;SDS011;33183;52.290;6.144;2024-03-06T08:13:37;3.17;;;2.75;;
47431;SDS011;33183;52.290;6.144;2024-03-06T08:16:03;6.32;;;3.08;;
47431;SDS011;33183;52.290;6.144;2024-03-06T08:18:29;5.45;;;3.10;;
47431;SDS011;33183;52.290;6.144;2024-03-06T08:20:55;4.00;;;3.15;;
47431;SDS011;33183;52.290;6.144;2024-03-06T08:23:21;3.00;;;2.65;;
47431;SDS011;33183;52.290;6.144;2024-03-06T08:25:46;3.13;;;2.83;;
47431;SDS011;33183;52.290;6.144;2024-03-06T08:28:11;4.13;;;2.65;;
47431;SDS011;33183;52.290;6.144;2024-03-06T08:30:36;3.83;;;3.47;;
47431;SDS011;33183;52.290;6.144;2024-03-06T08:33:02;3.72;;;2.92;;
47431;SDS011;33183;52.290;6.144;2024-03-06T08:35:27;3.67;;;3.00;;
47431;SDS011;33183;52.290;6.144;2024-03-06T08:37:53;3.08;;;2.60;;
47431;SDS011;33183;52.290;6.144;2024-03-06T08:40:18;4.80;;;2.90;;
47431;SDS011;33183;52.290;6.144;2024-03-06T08:42:44;3.35;;;2.90;;
47431;SDS011;33183;52.290;6.144;2024-03-06T08:45:10;3.20;;;2.85;;
47431;SDS011;33183;52.290;6.144;2024-03-06T08:47:35;3.72;;;3.05;;
47431;SDS011;33183;52.290;6.144;2024-03-06T08:50:01;6.05;;;4.30;;
47431;SDS011;33183;52.290;6.144;2024-03-06T08:52:29;4.55;;;3.55;;
47431;SDS011;33183;52.290;6.144;2024-03-06T08:54:56;3.72;;;3.10;;
47431;SDS011;33183;52.290;6.144;2024-03-06T08:57:21;4.60;;;3.45;;
47431;SDS011;33183;52.290;6.144;2024-03-06T08:59:47;5.45;;;3.00;;
47431;SDS011;33183;52.290;6.144;2024-03-06T09:02:13;3.75;;;3.33;;
47431;SDS011;33183;52.290;6.144;2024-03-06T09:04:42;3.97;;;3.35;;
47431;SDS011;33183;52.290;6.144;2024-03-06T09:07:08;4.20;;;3.55;;
47431;SDS011;33183;52.290;6.144;2024-03-06T09:09:34;3.90;;;2.97;;
47431;SDS011;33183;52.290;6.144;2024-03-06T09:12:00;4.13;;;3.03;;
47431;SDS011;33183;52.290;6.144;2024-03-06T09:14:26;4.22;;;3.65;;
47431;SDS011;33183;52.290;6.144;2024-03-06T09:16:51;3.70;;;3.38;;
47431;SDS011;33183;52.290;6.144;2024-03-06T09:19:16;3.80;;;3.00;;
47431;SDS011;33183;52.290;6.144;2024-03-06T09:21:41;5.18;;;3.47;;
47431;SDS011;33183;52.290;6.144;2024-03-06T09:24:07;5.40;;;3.75;;
47431;SDS011;33183;52.290;6.144;2024-03-06T09:26:32;5.32;;;3.05;;
47431;SDS011;33183;52.290;6.144;2024-03-06T09:28:58;5.43;;;3.95;;
47431;SDS011;33183;52.290;6.144;2024-03-06T09:31:23;5.57;;;4.20;;
47431;SDS011;33183;52.290;6.144;2024-03-06T09:33:50;4.10;;;3.17;;
47431;SDS011;33183;52.290;6.144;2024-03-06T09:36:15;4.72;;;3.80;;
47431;SDS011;33183;52.290;6.144;2024-03-06T09:38:40;6.18;;;3.30;;
47431;SDS011;33183;52.290;6.144;2024-03-06T09:41:06;5.53;;;4.53;;
47431;SDS011;33183;52.290;6.144;2024-03-06T09:43:32;4.53;;;3.72;;
47431;SDS011;33183;52.290;6.144;2024-03-06T09:45:58;4.75;;;3.65;;
47431;SDS011;33183;52.290;6.144;2024-03-06T09:48:23;5.13;;;3.70;;
47431;SDS011;33183;52.290;6.144;2024-03-06T09:50:49;5.60;;;4.18;;
47431;SDS011;33183;52.290;6.144;2024-03-06T09:53:17;4.85;;;4.07;;
47431;SDS011;33183;52.290;6.144;2024-03-06T09:55:43;4.97;;;4.13;;
47431;SDS011;33183;52.290;6.144;2024-03-06T09:58:11;5.28;;;3.90;;
47431;SDS011;33183;52.290;6.144;2024-03-06T10:00:37;4.88;;;3.58;;
47431;SDS011;33183;52.290;6.144;2024-03-06T10:03:02;5.35;;;3.58;;
47431;SDS011;33183;52.290;6.144;2024-03-06T10:05:30;4.60;;;3.50;;
47431;SDS011;33183;52.290;6.144;2024-03-06T10:07:57;5.72;;;3.60;;
47431;SDS011;33183;52.290;6.144;2024-03-06T10:10:24;4.63;;;3.40;;
47431;SDS011;33183;52.290;6.144;2024-03-06T10:12:49;5.28;;;4.18;;
47431;SDS011;33183;52.290;6.144;2024-03-06T10:15:15;4.57;;;4.00;;
47431;SDS011;33183;52.290;6.144;2024-03-06T10:17:40;4.22;;;3.50;;
47431;SDS011;33183;52.290;6.144;2024-03-06T10:20:19;4.60;;;3.58;;
47431;SDS011;33183;52.290;6.144;2024-03-06T10:22:54;4.82;;;4.00;;
47431;SDS011;33183;52.290;6.144;2024-03-06T10:25:19;4.22;;;3.65;;
47431;SDS011;33183;52.290;6.144;2024-03-06T10:27:46;4.40;;;3.95;;
47431;SDS011;33183;52.290;6.144;2024-03-06T10:30:12;4.60;;;3.72;;
47431;SDS011;33183;52.290;6.144;2024-03-06T10:32:41;5.93;;;3.60;;
47431;SDS011;33183;52.290;6.144;2024-03-06T10:35:08;4.93;;;4.00;;
47431;SDS011;33183;52.290;6.144;2024-03-06T10:37:43;4.18;;;3.50;;
47431;SDS011;33183;52.290;6.144;2024-03-06T10:40:09;4.15;;;3.75;;
47431;SDS011;33183;52.290;6.144;2024-03-06T10:42:39;3.92;;;3.50;;
47431;SDS011;33183;52.290;6.144;2024-03-06T10:45:06;4.72;;;3.50;;
47431;SDS011;33183;52.290;6.144;2024-03-06T10:47:32;4.53;;;3.33;;
47431;SDS011;33183;52.290;6.144;2024-03-06T10:49:59;4.38;;;3.50;;
47431;SDS011;33183;52.290;6.144;2024-03-06T10:52:25;6.03;;;4.05;;
47431;SDS011;33183;52.290;6.144;2024-03-06T10:54:52;5.32;;;3.30;;
47431;SDS011;33183;52.290;6.144;2024-03-06T10:57:18;5.35;;;3.50;;
47431;SDS011;33183;52.290;6.144;2024-03-06T10:59:44;7.35;;;3.78;;
47431;SDS011;33183;52.290;6.144;2024-03-06T11:02:10;4.22;;;3.55;;
47431;SDS011;33183;52.290;6.144;2024-03-06T11:04:37;4.25;;;3.40;;
47431;SDS011;33183;52.290;6.144;2024-03-06T11:07:05;5.00;;;3.63;;
47431;SDS011;33183;52.290;6.144;2024-03-06T11:09:34;4.43;;;3.78;;
47431;SDS011;33183;52.290;6.144;2024-03-06T11:11:59;4.63;;;3.85;;
47431;SDS011;33183;52.290;6.144;2024-03-06T11:14:25;4.50;;;3.75;;
47431;SDS011;33183;52.290;6.144;2024-03-06T11:17:03;4.88;;;4.38;;
47431;SDS011;33183;52.290;6.144;2024-03-06T11:28:16;4.40;;;3.35;;
47431;SDS011;33183;52.290;6.144;2024-03-06T11:30:48;4.28;;;3.30;;
47431;SDS011;33183;52.290;6.144;2024-03-06T11:33:20;5.55;;;3.40;;
47431;SDS011;33183;52.290;6.144;2024-03-06T11:39:04;5.05;;;3.53;;
47431;SDS011;33183;52.290;6.144;2024-03-06T11:44:00;5.82;;;3.58;;
47431;SDS011;33183;52.290;6.144;2024-03-06T11:49:17;5.05;;;3.53;;
47431;SDS011;33183;52.290;6.144;2024-03-06T11:51:54;4.05;;;3.38;;
47431;SDS011;33183;52.290;6.144;2024-03-06T11:54:20;5.05;;;3.90;;
47431;SDS011;33183;52.290;6.144;2024-03-06T11:56:51;4.30;;;3.22;;
47431;SDS011;33183;52.290;6.144;2024-03-06T11:59:20;3.43;;;3.07;;
47431;SDS011;33183;52.290;6.144;2024-03-06T12:01:56;4.10;;;3.38;;
47431;SDS011;33183;52.290;6.144;2024-03-06T12:04:22;3.88;;;2.75;;
47431;SDS011;33183;52.290;6.144;2024-03-06T12:06:49;3.90;;;2.75;;
47431;SDS011;33183;52.290;6.144;2024-03-06T12:09:14;3.33;;;2.85;;
47431;SDS011;33183;52.290;6.144;2024-03-06T12:11:40;3.53;;;2.78;;
47431;SDS011;33183;52.290;6.144;2024-03-06T12:14:13;3.63;;;3.00;;
47431;SDS011;33183;52.290;6.144;2024-03-06T12:16:39;10.82;;;3.83;;
47431;SDS011;33183;52.290;6.144;2024-03-06T12:19:05;5.15;;;3.15;;
47431;SDS011;33183;52.290;6.144;2024-03-06T12:21:31;3.20;;;2.65;;
47431;SDS011;33183;52.290;6.144;2024-03-06T12:24:03;3.72;;;3.00;;
47431;SDS011;33183;52.290;6.144;2024-03-06T12:26:33;3.42;;;2.65;;
47431;SDS011;33183;52.290;6.144;2024-03-06T12:29:08;4.50;;;2.97;;
47431;SDS011;33183;52.290;6.144;2024-03-06T12:31:35;3.72;;;2.63;;
47431;SDS011;33183;52.290;6.144;2024-03-06T12:34:01;3.67;;;2.70;;
47431;SDS011;33183;52.290;6.144;2024-03-06T12:36:27;3.30;;;2.80;;
47431;SDS011;33183;52.290;6.144;2024-03-06T12:38:55;2.70;;;2.30;;
47431;SDS011;33183;52.290;6.144;2024-03-06T12:41:20;3.53;;;2.53;;
47431;SDS011;33183;52.290;6.144;2024-03-06T12:43:46;3.05;;;2.72;;
47431;SDS011;33183;52.290;6.144;2024-03-06T12:46:11;3.10;;;2.42;;
47431;SDS011;33183;52.290;6.144;2024-03-06T12:48:36;3.22;;;2.83;;
47431;SDS011;33183;52.290;6.144;2024-03-06T12:51:01;3.53;;;2.60;;
47431;SDS011;33183;52.290;6.144;2024-03-06T12:53:30;3.27;;;2.87;;
47431;SDS011;33183;52.290;6.144;2024-03-06T12:55:55;4.07;;;2.88;;
47431;SDS011;33183;52.290;6.144;2024-03-06T12:58:21;2.65;;;2.25;;
47431;SDS011;33183;52.290;6.144;2024-03-06T13:00:46;2.90;;;2.35;;
47431;SDS011;33183;52.290;6.144;2024-03-06T13:03:11;2.60;;;2.40;;
47431;SDS011;33183;52.290;6.144;2024-03-06T13:05:36;2.65;;;2.40;;
47431;SDS011;33183;52.290;6.144;2024-03-06T13:08:02;2.72;;;2.50;;
47431;SDS011;33183;52.290;6.144;2024-03-06T13:10:28;3.78;;;2.58;;
47431;SDS011;33183;52.290;6.144;2024-03-06T13:12:53;3.15;;;2.67;;
47431;SDS011;33183;52.290;6.144;2024-03-06T13:15:18;3.40;;;2.47;;
47431;SDS011;33183;52.290;6.144;2024-03-06T13:17:44;4.25;;;2.95;;
47431;SDS011;33183;52.290;6.144;2024-03-06T13:20:09;3.38;;;2.50;;
47431;SDS011;33183;52.290;6.144;2024-03-06T13:22:36;2.70;;;2.30;;
47431;SDS011;33183;52.290;6.144;2024-03-06T13:25:02;2.95;;;2.53;;
47431;SDS011;33183;52.290;6.144;2024-03-06T13:27:27;3.42;;;2.75;;
47431;SDS011;33183;52.290;6.144;2024-03-06T13:29:52;2.92;;;2.63;;
47431;SDS011;33183;52.290;6.144;2024-03-06T13:32:18;3.78;;;2.45;;
47431;SDS011;33183;52.290;6.144;2024-03-06T13:34:43;3.20;;;2.80;;
47431;SDS011;33183;52.290;6.144;2024-03-06T13:37:09;3.97;;;2.80;;
47431;SDS011;33183;52.290;6.144;2024-03-06T13:39:35;3.00;;;2.60;;
47431;SDS011;33183;52.290;6.144;2024-03-06T13:42:00;4.13;;;2.90;;
47431;SDS011;33183;52.290;6.144;2024-03-06T13:44:26;4.18;;;2.90;;
47431;SDS011;33183;52.290;6.144;2024-03-06T13:46:51;3.08;;;2.70;;
47431;SDS011;33183;52.290;6.144;2024-03-06T13:52:06;2.92;;;2.63;;
47431;SDS011;33183;52.290;6.144;2024-03-06T13:54:33;6.28;;;2.90;;
47431;SDS011;33183;52.290;6.144;2024-03-06T13:56:59;3.28;;;2.97;;
47431;SDS011;33183;52.290;6.144;2024-03-06T13:59:32;2.60;;;2.20;;
47431;SDS011;33183;52.290;6.144;2024-03-06T14:01:58;3.45;;;2.70;;
47431;SDS011;33183;52.290;6.144;2024-03-06T14:04:24;3.47;;;2.70;;
47431;SDS011;33183;52.290;6.144;2024-03-06T14:06:50;2.72;;;2.40;;
47431;SDS011;33183;52.290;6.144;2024-03-06T14:09:15;2.78;;;2.42;;
47431;SDS011;33183;52.290;6.144;2024-03-06T14:11:40;2.47;;;2.20;;
47431;SDS011;33183;52.290;6.144;2024-03-06T14:14:06;3.42;;;2.60;;
47431;SDS011;33183;52.290;6.144;2024-03-06T14:16:31;3.40;;;2.50;;
47431;SDS011;33183;52.290;6.144;2024-03-06T14:18:56;3.20;;;2.85;;
47431;SDS011;33183;52.290;6.144;2024-03-06T14:21:22;3.75;;;2.40;;
47431;SDS011;33183;52.290;6.144;2024-03-06T14:23:47;2.63;;;2.38;;
47431;SDS011;33183;52.290;6.144;2024-03-06T14:26:12;2.50;;;2.22;;
47431;SDS011;33183;52.290;6.144;2024-03-06T14:28:38;2.90;;;2.28;;
47431;SDS011;33183;52.290;6.144;2024-03-06T14:31:03;2.53;;;2.33;;
47431;SDS011;33183;52.290;6.144;2024-03-06T14:33:30;2.90;;;2.60;;
47431;SDS011;33183;52.290;6.144;2024-03-06T14:35:55;3.50;;;2.60;;
47431;SDS011;33183;52.290;6.144;2024-03-06T14:38:20;3.33;;;2.75;;
47431;SDS011;33183;52.290;6.144;2024-03-06T14:40:46;3.15;;;2.40;;
47431;SDS011;33183;52.290;6.144;2024-03-06T14:43:11;3.22;;;2.58;;
47431;SDS011;33183;52.290;6.144;2024-03-06T14:45:37;2.95;;;2.65;;
47431;SDS011;33183;52.290;6.144;2024-03-06T14:48:07;3.33;;;2.80;;
47431;SDS011;33183;52.290;6.144;2024-03-06T14:50:32;4.28;;;2.92;;
47431;SDS011;33183;52.290;6.144;2024-03-06T14:52:58;2.80;;;2.50;;
47431;SDS011;33183;52.290;6.144;2024-03-06T14:55:23;2.90;;;2.60;;
47431;SDS011;33183;52.290;6.144;2024-03-06T14:57:48;3.90;;;3.05;;
47431;SDS011;33183;52.290;6.144;2024-03-06T15:00:14;2.75;;;2.25;;
47431;SDS011;33183;52.290;6.144;2024-03-06T15:02:42;3.50;;;2.92;;